Terminal Aerodrome Forecast
Issued by NWS North Platte, NE

Home | Current Version | Previous Version | Text Only | Print | Product List | Glossary On
Versions: 1 2 3 4 5 6 7 8 9 10 11 12 13 14 15 16 17
177
FTUS43 KLBF 231120
TAFVTN
TAF
KVTN 231120Z 2312/2412 28008KT P6SM SCT007 SCT100
     FM231900 33006KT P6SM SCT200
     FM232300 VRB04KT P6SM SCT250
     FM240500 14005KT P6SM BKN025=

USA.gov is the U.S. government's official web portal to all federal, state and local government web resources and services.